sensor_id;sensor_type;location;lat;lon;timestamp;P1;durP1;ratioP1;P2;durP2;ratioP2
7773;SDS011;3931;42.260;23.116;2023-11-21T00:02:19;27.20;;;9.57;;
7773;SDS011;3931;42.260;23.116;2023-11-21T00:04:47;25.60;;;9.60;;
7773;SDS011;3931;42.260;23.116;2023-11-21T00:07:13;30.93;;;12.20;;
7773;SDS011;3931;42.260;23.116;2023-11-21T00:09:40;25.03;;;8.60;;
7773;SDS011;3931;42.260;23.116;2023-11-21T00:12:06;15.20;;;7.27;;
7773;SDS011;3931;42.260;23.116;2023-11-21T00:14:35;18.70;;;8.40;;
7773;SDS011;3931;42.260;23.116;2023-11-21T00:17:01;16.07;;;7.83;;
7773;SDS011;3931;42.260;23.116;2023-11-21T00:19:27;15.63;;;8.10;;
7773;SDS011;3931;42.260;23.116;2023-11-21T00:21:54;23.87;;;8.63;;
7773;SDS011;3931;42.260;23.116;2023-11-21T00:24:20;21.27;;;8.90;;
7773;SDS011;3931;42.260;23.116;2023-11-21T00:26:46;17.20;;;8.90;;
7773;SDS011;3931;42.260;23.116;2023-11-21T00:29:13;17.60;;;8.70;;
7773;SDS011;3931;42.260;23.116;2023-11-21T00:31:42;26.50;;;9.93;;
7773;SDS011;3931;42.260;23.116;2023-11-21T00:34:08;19.10;;;8.90;;
7773;SDS011;3931;42.260;23.116;2023-11-21T00:36:34;20.50;;;9.83;;
7773;SDS011;3931;42.260;23.116;2023-11-21T00:39:01;20.80;;;8.67;;
7773;SDS011;3931;42.260;23.116;2023-11-21T00:41:29;21.23;;;7.87;;
7773;SDS011;3931;42.260;23.116;2023-11-21T00:43:55;15.53;;;7.80;;
7773;SDS011;3931;42.260;23.116;2023-11-21T00:46:21;15.47;;;7.93;;
7773;SDS011;3931;42.260;23.116;2023-11-21T00:48:49;21.10;;;8.37;;
7773;SDS011;3931;42.260;23.116;2023-11-21T00:51:15;15.47;;;7.83;;
7773;SDS011;3931;42.260;23.116;2023-11-21T00:53:41;19.17;;;9.17;;
7773;SDS011;3931;42.260;23.116;2023-11-21T00:56:08;19.90;;;8.07;;
7773;SDS011;3931;42.260;23.116;2023-11-21T00:58:34;13.00;;;7.00;;
7773;SDS011;3931;42.260;23.116;2023-11-21T01:01:00;15.37;;;6.90;;
7773;SDS011;3931;42.260;23.116;2023-11-21T01:03:27;14.50;;;6.47;;
7773;SDS011;3931;42.260;23.116;2023-11-21T01:05:53;29.67;;;10.60;;
7773;SDS011;3931;42.260;23.116;2023-11-21T01:08:19;21.87;;;11.50;;
7773;SDS011;3931;42.260;23.116;2023-11-21T01:10:46;18.73;;;9.77;;
7773;SDS011;3931;42.260;23.116;2023-11-21T01:13:13;18.73;;;8.57;;
7773;SDS011;3931;42.260;23.116;2023-11-21T01:15:40;16.67;;;7.93;;
7773;SDS011;3931;42.260;23.116;2023-11-21T01:18:07;19.20;;;8.57;;
7773;SDS011;3931;42.260;23.116;2023-11-21T01:20:33;15.33;;;8.10;;
7773;SDS011;3931;42.260;23.116;2023-11-21T01:23:00;22.27;;;8.40;;
7773;SDS011;3931;42.260;23.116;2023-11-21T01:25:26;16.73;;;8.47;;
7773;SDS011;3931;42.260;23.116;2023-11-21T01:27:52;28.13;;;9.67;;
7773;SDS011;3931;42.260;23.116;2023-11-21T01:30:19;19.77;;;9.70;;
7773;SDS011;3931;42.260;23.116;2023-11-21T01:32:45;21.93;;;10.33;;
7773;SDS011;3931;42.260;23.116;2023-11-21T01:35:11;20.60;;;9.40;;
7773;SDS011;3931;42.260;23.116;2023-11-21T01:37:37;18.87;;;8.43;;
7773;SDS011;3931;42.260;23.116;2023-11-21T01:40:03;14.90;;;6.27;;
7773;SDS011;3931;42.260;23.116;2023-11-21T01:42:34;12.73;;;6.60;;
7773;SDS011;3931;42.260;23.116;2023-11-21T01:45:00;20.53;;;6.60;;
7773;SDS011;3931;42.260;23.116;2023-11-21T01:47:30;14.03;;;6.37;;
7773;SDS011;3931;42.260;23.116;2023-11-21T01:49:56;10.63;;;5.70;;
7773;SDS011;3931;42.260;23.116;2023-11-21T01:52:23;12.90;;;6.60;;
7773;SDS011;3931;42.260;23.116;2023-11-21T01:54:50;16.67;;;6.53;;
7773;SDS011;3931;42.260;23.116;2023-11-21T01:57:16;13.70;;;6.50;;
7773;SDS011;3931;42.260;23.116;2023-11-21T01:59:43;15.80;;;6.67;;
7773;SDS011;3931;42.260;23.116;2023-11-21T02:02:11;15.30;;;6.70;;
7773;SDS011;3931;42.260;23.116;2023-11-21T02:04:38;18.40;;;7.30;;
7773;SDS011;3931;42.260;23.116;2023-11-21T02:07:04;15.47;;;7.33;;
7773;SDS011;3931;42.260;23.116;2023-11-21T02:09:31;16.30;;;6.20;;
7773;SDS011;3931;42.260;23.116;2023-11-21T02:11:58;13.80;;;5.53;;
7773;SDS011;3931;42.260;23.116;2023-11-21T02:14:24;20.20;;;6.27;;
7773;SDS011;3931;42.260;23.116;2023-11-21T02:16:52;11.10;;;6.07;;
7773;SDS011;3931;42.260;23.116;2023-11-21T02:19:19;15.73;;;6.83;;
7773;SDS011;3931;42.260;23.116;2023-11-21T02:21:49;16.47;;;6.50;;
7773;SDS011;3931;42.260;23.116;2023-11-21T02:24:18;16.70;;;7.30;;
7773;SDS011;3931;42.260;23.116;2023-11-21T02:26:45;13.73;;;7.33;;
7773;SDS011;3931;42.260;23.116;2023-11-21T02:29:11;16.67;;;7.70;;
7773;SDS011;3931;42.260;23.116;2023-11-21T02:31:38;20.47;;;8.90;;
7773;SDS011;3931;42.260;23.116;2023-11-21T02:34:12;14.23;;;7.63;;
7773;SDS011;3931;42.260;23.116;2023-11-21T02:36:39;14.70;;;7.00;;
7773;SDS011;3931;42.260;23.116;2023-11-21T02:39:05;18.23;;;8.03;;
7773;SDS011;3931;42.260;23.116;2023-11-21T02:41:33;17.80;;;9.03;;
7773;SDS011;3931;42.260;23.116;2023-11-21T02:43:59;15.27;;;8.47;;
7773;SDS011;3931;42.260;23.116;2023-11-21T02:46:26;18.67;;;8.10;;
7773;SDS011;3931;42.260;23.116;2023-11-21T02:48:52;23.57;;;10.70;;
7773;SDS011;3931;42.260;23.116;2023-11-21T02:51:19;22.77;;;11.47;;
7773;SDS011;3931;42.260;23.116;2023-11-21T02:53:45;20.93;;;9.30;;
7773;SDS011;3931;42.260;23.116;2023-11-21T02:56:11;26.90;;;9.77;;
7773;SDS011;3931;42.260;23.116;2023-11-21T02:58:40;16.70;;;8.50;;
7773;SDS011;3931;42.260;23.116;2023-11-21T03:01:08;16.13;;;8.07;;
7773;SDS011;3931;42.260;23.116;2023-11-21T03:03:34;19.80;;;7.40;;
7773;SDS011;3931;42.260;23.116;2023-11-21T03:06:05;12.40;;;6.93;;
7773;SDS011;3931;42.260;23.116;2023-11-21T03:08:31;15.63;;;7.63;;
7773;SDS011;3931;42.260;23.116;2023-11-21T03:10:57;25.13;;;7.00;;
7773;SDS011;3931;42.260;23.116;2023-11-21T03:13:24;13.93;;;6.57;;
7773;SDS011;3931;42.260;23.116;2023-11-21T03:15:50;16.10;;;6.93;;
7773;SDS011;3931;42.260;23.116;2023-11-21T03:18:17;12.80;;;6.83;;
7773;SDS011;3931;42.260;23.116;2023-11-21T03:20:43;18.03;;;8.40;;
7773;SDS011;3931;42.260;23.116;2023-11-21T03:23:11;14.20;;;7.23;;
7773;SDS011;3931;42.260;23.116;2023-11-21T03:25:37;18.67;;;8.87;;
7773;SDS011;3931;42.260;23.116;2023-11-21T03:28:03;23.37;;;11.20;;
7773;SDS011;3931;42.260;23.116;2023-11-21T03:30:29;21.20;;;10.67;;
7773;SDS011;3931;42.260;23.116;2023-11-21T03:32:56;12.27;;;7.50;;
7773;SDS011;3931;42.260;23.116;2023-11-21T03:35:22;12.77;;;6.30;;
7773;SDS011;3931;42.260;23.116;2023-11-21T03:37:49;15.63;;;6.87;;
7773;SDS011;3931;42.260;23.116;2023-11-21T03:40:15;16.43;;;7.20;;
7773;SDS011;3931;42.260;23.116;2023-11-21T03:42:41;29.87;;;13.90;;
7773;SDS011;3931;42.260;23.116;2023-11-21T03:45:07;26.07;;;8.87;;
7773;SDS011;3931;42.260;23.116;2023-11-21T03:47:34;30.97;;;17.67;;
7773;SDS011;3931;42.260;23.116;2023-11-21T03:50:01;28.77;;;12.10;;
7773;SDS011;3931;42.260;23.116;2023-11-21T03:52:28;14.83;;;8.70;;
7773;SDS011;3931;42.260;23.116;2023-11-21T03:54:54;16.40;;;8.67;;
7773;SDS011;3931;42.260;23.116;2023-11-21T03:57:20;21.07;;;10.07;;
7773;SDS011;3931;42.260;23.116;2023-11-21T03:59:46;18.27;;;9.80;;
7773;SDS011;3931;42.260;23.116;2023-11-21T04:02:12;24.70;;;9.97;;
7773;SDS011;3931;42.260;23.116;2023-11-21T04:04:38;22.17;;;10.67;;
7773;SDS011;3931;42.260;23.116;2023-11-21T04:07:05;21.27;;;10.37;;
7773;SDS011;3931;42.260;23.116;2023-11-21T04:09:31;17.27;;;8.33;;
7773;SDS011;3931;42.260;23.116;2023-11-21T04:11:57;16.40;;;9.80;;
7773;SDS011;3931;42.260;23.116;2023-11-21T04:14:24;47.37;;;30.30;;
7773;SDS011;3931;42.260;23.116;2023-11-21T04:16:50;74.90;;;46.67;;
7773;SDS011;3931;42.260;23.116;2023-11-21T04:19:16;90.93;;;49.23;;
7773;SDS011;3931;42.260;23.116;2023-11-21T04:21:42;66.10;;;38.10;;
7773;SDS011;3931;42.260;23.116;2023-11-21T04:24:09;60.93;;;31.10;;
7773;SDS011;3931;42.260;23.116;2023-11-21T04:26:35;59.30;;;25.87;;
7773;SDS011;3931;42.260;23.116;2023-11-21T04:29:01;59.60;;;27.80;;
7773;SDS011;3931;42.260;23.116;2023-11-21T04:31:27;53.53;;;24.97;;
7773;SDS011;3931;42.260;23.116;2023-11-21T04:33:53;44.30;;;24.60;;
7773;SDS011;3931;42.260;23.116;2023-11-21T04:36:19;48.67;;;23.13;;
7773;SDS011;3931;42.260;23.116;2023-11-21T04:38:45;44.50;;;17.67;;
7773;SDS011;3931;42.260;23.116;2023-11-21T04:41:12;36.73;;;13.70;;
7773;SDS011;3931;42.260;23.116;2023-11-21T04:43:38;28.90;;;10.70;;
7773;SDS011;3931;42.260;23.116;2023-11-21T04:46:04;23.17;;;9.03;;
7773;SDS011;3931;42.260;23.116;2023-11-21T04:48:32;15.40;;;7.70;;
7773;SDS011;3931;42.260;23.116;2023-11-21T04:50:58;18.37;;;8.53;;
7773;SDS011;3931;42.260;23.116;2023-11-21T04:53:24;18.70;;;9.03;;
7773;SDS011;3931;42.260;23.116;2023-11-21T04:55:50;21.93;;;10.87;;
7773;SDS011;3931;42.260;23.116;2023-11-21T04:58:17;27.03;;;11.80;;
7773;SDS011;3931;42.260;23.116;2023-11-21T05:00:44;21.27;;;11.30;;
7773;SDS011;3931;42.260;23.116;2023-11-21T05:03:10;25.60;;;11.27;;
7773;SDS011;3931;42.260;23.116;2023-11-21T05:05:37;21.53;;;9.80;;
7773;SDS011;3931;42.260;23.116;2023-11-21T05:08:03;33.43;;;14.63;;
7773;SDS011;3931;42.260;23.116;2023-11-21T05:10:30;23.77;;;11.40;;
7773;SDS011;3931;42.260;23.116;2023-11-21T05:12:56;25.63;;;9.93;;
7773;SDS011;3931;42.260;23.116;2023-11-21T05:15:23;30.43;;;11.40;;
7773;SDS011;3931;42.260;23.116;2023-11-21T05:17:49;24.30;;;12.70;;
7773;SDS011;3931;42.260;23.116;2023-11-21T05:20:17;21.67;;;10.23;;
7773;SDS011;3931;42.260;23.116;2023-11-21T05:22:45;24.80;;;12.23;;
7773;SDS011;3931;42.260;23.116;2023-11-21T05:25:12;26.67;;;10.90;;
7773;SDS011;3931;42.260;23.116;2023-11-21T05:27:38;23.27;;;9.53;;
7773;SDS011;3931;42.260;23.116;2023-11-21T05:30:05;35.80;;;10.40;;
7773;SDS011;3931;42.260;23.116;2023-11-21T05:32:35;29.03;;;11.93;;
7773;SDS011;3931;42.260;23.116;2023-11-21T05:35:01;40.07;;;19.60;;
7773;SDS011;3931;42.260;23.116;2023-11-21T05:37:27;65.07;;;24.90;;
7773;SDS011;3931;42.260;23.116;2023-11-21T05:39:53;38.93;;;16.77;;
7773;SDS011;3931;42.260;23.116;2023-11-21T05:42:21;37.43;;;13.63;;
7773;SDS011;3931;42.260;23.116;2023-11-21T05:44:48;39.97;;;13.50;;
7773;SDS011;3931;42.260;23.116;2023-11-21T05:47:14;32.03;;;12.50;;
7773;SDS011;3931;42.260;23.116;2023-11-21T05:49:41;36.53;;;13.80;;
7773;SDS011;3931;42.260;23.116;2023-11-21T05:52:07;27.43;;;11.40;;
7773;SDS011;3931;42.260;23.116;2023-11-21T05:54:33;35.23;;;12.73;;
7773;SDS011;3931;42.260;23.116;2023-11-21T05:56:59;35.13;;;13.70;;
7773;SDS011;3931;42.260;23.116;2023-11-21T05:59:26;27.67;;;12.10;;
7773;SDS011;3931;42.260;23.116;2023-11-21T06:01:52;35.03;;;14.20;;
7773;SDS011;3931;42.260;23.116;2023-11-21T06:04:18;88.63;;;33.23;;
7773;SDS011;3931;42.260;23.116;2023-11-21T06:06:49;39.30;;;19.87;;
7773;SDS011;3931;42.260;23.116;2023-11-21T06:09:16;37.87;;;18.80;;
7773;SDS011;3931;42.260;23.116;2023-11-21T06:11:42;46.27;;;22.13;;
7773;SDS011;3931;42.260;23.116;2023-11-21T06:14:08;64.33;;;21.70;;
7773;SDS011;3931;42.260;23.116;2023-11-21T06:16:35;44.23;;;21.90;;
7773;SDS011;3931;42.260;23.116;2023-11-21T06:19:01;41.80;;;20.73;;
7773;SDS011;3931;42.260;23.116;2023-11-21T06:21:27;56.30;;;22.60;;
7773;SDS011;3931;42.260;23.116;2023-11-21T06:23:54;50.73;;;26.03;;
7773;SDS011;3931;42.260;23.116;2023-11-21T06:26:22;43.17;;;19.40;;
7773;SDS011;3931;42.260;23.116;2023-11-21T06:28:49;50.43;;;22.00;;
7773;SDS011;3931;42.260;23.116;2023-11-21T06:31:16;57.03;;;20.77;;
7773;SDS011;3931;42.260;23.116;2023-11-21T06:33:43;41.10;;;21.13;;
7773;SDS011;3931;42.260;23.116;2023-11-21T06:36:09;34.33;;;15.20;;
7773;SDS011;3931;42.260;23.116;2023-11-21T06:38:36;46.63;;;18.00;;
7773;SDS011;3931;42.260;23.116;2023-11-21T06:41:03;44.47;;;19.70;;
7773;SDS011;3931;42.260;23.116;2023-11-21T06:43:30;46.13;;;20.77;;
7773;SDS011;3931;42.260;23.116;2023-11-21T06:45:56;44.07;;;18.50;;
7773;SDS011;3931;42.260;23.116;2023-11-21T06:48:22;73.30;;;19.33;;
7773;SDS011;3931;42.260;23.116;2023-11-21T06:50:48;44.67;;;18.43;;
7773;SDS011;3931;42.260;23.116;2023-11-21T06:53:14;45.60;;;18.60;;
7773;SDS011;3931;42.260;23.116;2023-11-21T06:55:40;38.67;;;18.30;;
7773;SDS011;3931;42.260;23.116;2023-11-21T06:58:07;36.23;;;17.10;;
7773;SDS011;3931;42.260;23.116;2023-11-21T07:00:33;35.30;;;15.17;;
7773;SDS011;3931;42.260;23.116;2023-11-21T07:02:59;41.87;;;12.60;;
7773;SDS011;3931;42.260;23.116;2023-11-21T07:05:25;34.10;;;12.87;;
7773;SDS011;3931;42.260;23.116;2023-11-21T07:07:51;22.40;;;12.20;;
7773;SDS011;3931;42.260;23.116;2023-11-21T07:10:19;25.80;;;10.50;;
7773;SDS011;3931;42.260;23.116;2023-11-21T07:12:45;22.20;;;8.40;;
7773;SDS011;3931;42.260;23.116;2023-11-21T07:15:12;18.57;;;8.00;;
7773;SDS011;3931;42.260;23.116;2023-11-21T07:17:38;16.00;;;7.63;;
7773;SDS011;3931;42.260;23.116;2023-11-21T07:20:05;15.70;;;7.43;;
7773;SDS011;3931;42.260;23.116;2023-11-21T07:22:32;17.13;;;7.80;;
7773;SDS011;3931;42.260;23.116;2023-11-21T07:24:58;19.60;;;9.07;;
7773;SDS011;3931;42.260;23.116;2023-11-21T07:27:24;20.87;;;8.90;;
7773;SDS011;3931;42.260;23.116;2023-11-21T07:29:50;22.33;;;10.20;;
7773;SDS011;3931;42.260;23.116;2023-11-21T07:32:17;17.70;;;9.07;;
7773;SDS011;3931;42.260;23.116;2023-11-21T07:34:43;20.93;;;10.07;;
7773;SDS011;3931;42.260;23.116;2023-11-21T07:37:09;23.97;;;10.60;;
7773;SDS011;3931;42.260;23.116;2023-11-21T07:39:35;33.57;;;12.57;;
7773;SDS011;3931;42.260;23.116;2023-11-21T07:42:01;29.77;;;12.50;;
7773;SDS011;3931;42.260;23.116;2023-11-21T07:44:27;25.47;;;12.20;;
7773;SDS011;3931;42.260;23.116;2023-11-21T07:46:54;26.73;;;12.10;;
7773;SDS011;3931;42.260;23.116;2023-11-21T07:49:23;24.67;;;13.20;;
7773;SDS011;3931;42.260;23.116;2023-11-21T07:51:49;27.77;;;16.80;;
7773;SDS011;3931;42.260;23.116;2023-11-21T07:54:16;29.67;;;15.30;;
7773;SDS011;3931;42.260;23.116;2023-11-21T07:56:42;37.27;;;19.77;;
7773;SDS011;3931;42.260;23.116;2023-11-21T07:59:08;38.17;;;18.53;;
7773;SDS011;3931;42.260;23.116;2023-11-21T08:01:34;42.23;;;16.80;;
7773;SDS011;3931;42.260;23.116;2023-11-21T08:04:00;37.13;;;17.87;;
7773;SDS011;3931;42.260;23.116;2023-11-21T08:06:29;49.73;;;21.00;;
7773;SDS011;3931;42.260;23.116;2023-11-21T08:08:55;48.50;;;21.87;;
7773;SDS011;3931;42.260;23.116;2023-11-21T08:11:22;51.07;;;22.50;;
7773;SDS011;3931;42.260;23.116;2023-11-21T08:13:48;41.20;;;18.10;;
7773;SDS011;3931;42.260;23.116;2023-11-21T08:16:14;40.27;;;18.83;;
7773;SDS011;3931;42.260;23.116;2023-11-21T08:18:40;48.03;;;20.20;;
7773;SDS011;3931;42.260;23.116;2023-11-21T08:21:06;53.33;;;17.13;;
7773;SDS011;3931;42.260;23.116;2023-11-21T08:23:34;46.80;;;21.20;;
7773;SDS011;3931;42.260;23.116;2023-11-21T08:26:00;52.97;;;18.80;;
7773;SDS011;3931;42.260;23.116;2023-11-21T08:28:28;39.20;;;14.60;;
7773;SDS011;3931;42.260;23.116;2023-11-21T08:30:55;41.67;;;14.00;;
7773;SDS011;3931;42.260;23.116;2023-11-21T08:33:21;65.73;;;14.30;;
7773;SDS011;3931;42.260;23.116;2023-11-21T08:35:47;43.77;;;15.93;;
7773;SDS011;3931;42.260;23.116;2023-11-21T08:38:13;30.27;;;15.07;;
7773;SDS011;3931;42.260;23.116;2023-11-21T08:40:40;41.80;;;14.80;;
7773;SDS011;3931;42.260;23.116;2023-11-21T08:43:06;39.87;;;17.90;;
7773;SDS011;3931;42.260;23.116;2023-11-21T08:45:33;43.63;;;17.20;;
7773;SDS011;3931;42.260;23.116;2023-11-21T08:47:59;45.60;;;16.20;;
7773;SDS011;3931;42.260;23.116;2023-11-21T08:50:25;44.03;;;18.13;;
7773;SDS011;3931;42.260;23.116;2023-11-21T08:52:51;40.33;;;18.30;;
7773;SDS011;3931;42.260;23.116;2023-11-21T08:55:17;41.50;;;17.50;;
7773;SDS011;3931;42.260;23.116;2023-11-21T08:57:45;41.20;;;20.07;;
7773;SDS011;3931;42.260;23.116;2023-11-21T09:00:12;49.30;;;22.20;;
7773;SDS011;3931;42.260;23.116;2023-11-21T09:02:41;49.93;;;18.03;;
7773;SDS011;3931;42.260;23.116;2023-11-21T09:05:07;56.33;;;19.10;;
7773;SDS011;3931;42.260;23.116;2023-11-21T09:07:34;71.77;;;38.30;;
7773;SDS011;3931;42.260;23.116;2023-11-21T09:10:01;49.13;;;20.17;;
7773;SDS011;3931;42.260;23.116;2023-11-21T09:12:27;46.07;;;17.73;;
7773;SDS011;3931;42.260;23.116;2023-11-21T09:14:53;42.13;;;16.37;;
7773;SDS011;3931;42.260;23.116;2023-11-21T09:17:19;51.37;;;17.10;;
7773;SDS011;3931;42.260;23.116;2023-11-21T09:19:46;42.87;;;15.80;;
7773;SDS011;3931;42.260;23.116;2023-11-21T09:22:15;63.37;;;18.20;;
7773;SDS011;3931;42.260;23.116;2023-11-21T09:24:41;51.03;;;15.83;;
7773;SDS011;3931;42.260;23.116;2023-11-21T09:27:07;58.03;;;12.73;;
7773;SDS011;3931;42.260;23.116;2023-11-21T09:29:34;58.60;;;13.17;;
7773;SDS011;3931;42.260;23.116;2023-11-21T09:32:01;62.33;;;14.00;;
7773;SDS011;3931;42.260;23.116;2023-11-21T09:34:28;60.97;;;13.13;;
7773;SDS011;3931;42.260;23.116;2023-11-21T09:36:54;50.53;;;12.40;;
7773;SDS011;3931;42.260;23.116;2023-11-21T09:39:20;50.80;;;11.73;;
7773;SDS011;3931;42.260;23.116;2023-11-21T09:41:47;59.40;;;13.63;;
7773;SDS011;3931;42.260;23.116;2023-11-21T09:44:17;52.83;;;17.53;;
7773;SDS011;3931;42.260;23.116;2023-11-21T09:46:47;45.27;;;15.77;;
7773;SDS011;3931;42.260;23.116;2023-11-21T09:49:14;39.03;;;13.60;;
7773;SDS011;3931;42.260;23.116;2023-11-21T09:51:44;29.23;;;10.30;;
7773;SDS011;3931;42.260;23.116;2023-11-21T09:54:13;28.93;;;8.70;;
7773;SDS011;3931;42.260;23.116;2023-11-21T09:56:42;22.47;;;8.27;;
7773;SDS011;3931;42.260;23.116;2023-11-21T09:59:09;39.57;;;11.97;;
7773;SDS011;3931;42.260;23.116;2023-11-21T10:01:39;32.73;;;10.77;;
7773;SDS011;3931;42.260;23.116;2023-11-21T10:04:07;21.40;;;11.20;;
7773;SDS011;3931;42.260;23.116;2023-11-21T10:06:37;30.33;;;12.67;;
7773;SDS011;3931;42.260;23.116;2023-11-21T10:09:04;21.23;;;10.10;;
7773;SDS011;3931;42.260;23.116;2023-11-21T10:11:36;27.07;;;12.27;;
7773;SDS011;3931;42.260;23.116;2023-11-21T10:14:06;18.20;;;9.90;;
7773;SDS011;3931;42.260;23.116;2023-11-21T10:16:35;25.27;;;10.13;;
7773;SDS011;3931;42.260;23.116;2023-11-21T10:19:04;21.83;;;8.30;;
7773;SDS011;3931;42.260;23.116;2023-11-21T10:21:32;32.00;;;11.27;;
7773;SDS011;3931;42.260;23.116;2023-11-21T10:23:58;20.37;;;9.73;;
7773;SDS011;3931;42.260;23.116;2023-11-21T10:26:24;18.77;;;10.27;;
7773;SDS011;3931;42.260;23.116;2023-11-21T10:28:55;23.80;;;8.60;;
7773;SDS011;3931;42.260;23.116;2023-11-21T10:31:22;20.30;;;9.00;;
7773;SDS011;3931;42.260;23.116;2023-11-21T10:33:49;16.70;;;8.63;;
7773;SDS011;3931;42.260;23.116;2023-11-21T10:36:19;20.53;;;10.23;;
7773;SDS011;3931;42.260;23.116;2023-11-21T10:38:51;33.33;;;13.17;;
7773;SDS011;3931;42.260;23.116;2023-11-21T10:41:19;36.77;;;16.70;;
7773;SDS011;3931;42.260;23.116;2023-11-21T10:43:45;33.10;;;13.90;;
7773;SDS011;3931;42.260;23.116;2023-11-21T10:46:11;26.10;;;11.97;;
7773;SDS011;3931;42.260;23.116;2023-11-21T10:48:38;23.80;;;10.50;;
7773;SDS011;3931;42.260;23.116;2023-11-21T10:51:07;22.40;;;10.87;;
7773;SDS011;3931;42.260;23.116;2023-11-21T10:53:35;18.70;;;7.77;;
7773;SDS011;3931;42.260;23.116;2023-11-21T10:56:05;18.70;;;12.33;;
7773;SDS011;3931;42.260;23.116;2023-11-21T10:58:34;23.13;;;8.97;;
7773;SDS011;3931;42.260;23.116;2023-11-21T11:01:01;23.43;;;10.30;;
7773;SDS011;3931;42.260;23.116;2023-11-21T11:03:29;18.83;;;9.53;;
7773;SDS011;3931;42.260;23.116;2023-11-21T11:05:58;17.93;;;8.80;;
7773;SDS011;3931;42.260;23.116;2023-11-21T11:08:24;16.07;;;8.87;;
7773;SDS011;3931;42.260;23.116;2023-11-21T11:10:52;19.27;;;8.50;;
7773;SDS011;3931;42.260;23.116;2023-11-21T11:13:19;17.90;;;8.70;;
7773;SDS011;3931;42.260;23.116;2023-11-21T11:15:47;21.93;;;11.60;;
7773;SDS011;3931;42.260;23.116;2023-11-21T11:18:13;19.80;;;10.10;;
7773;SDS011;3931;42.260;23.116;2023-11-21T11:20:41;21.00;;;8.77;;
7773;SDS011;3931;42.260;23.116;2023-11-21T11:23:13;23.60;;;10.80;;
7773;SDS011;3931;42.260;23.116;2023-11-21T11:25:55;30.23;;;13.23;;
7773;SDS011;3931;42.260;23.116;2023-11-21T11:28:35;22.20;;;11.47;;
7773;SDS011;3931;42.260;23.116;2023-11-21T11:31:13;27.03;;;11.00;;
7773;SDS011;3931;42.260;23.116;2023-11-21T11:33:51;30.37;;;12.70;;
7773;SDS011;3931;42.260;23.116;2023-11-21T11:36:25;28.70;;;13.03;;
7773;SDS011;3931;42.260;23.116;2023-11-21T11:38:55;33.70;;;12.50;;
7773;SDS011;3931;42.260;23.116;2023-11-21T11:41:25;23.73;;;10.47;;
7773;SDS011;3931;42.260;23.116;2023-11-21T11:43:52;25.73;;;12.30;;
7773;SDS011;3931;42.260;23.116;2023-11-21T11:46:19;28.83;;;11.83;;
7773;SDS011;3931;42.260;23.116;2023-11-21T11:48:46;39.03;;;16.43;;
7773;SDS011;3931;42.260;23.116;2023-11-21T11:51:14;23.47;;;12.70;;
7773;SDS011;3931;42.260;23.116;2023-11-21T11:53:43;31.67;;;15.07;;
7773;SDS011;3931;42.260;23.116;2023-11-21T11:56:20;21.90;;;10.13;;
7773;SDS011;3931;42.260;23.116;2023-11-21T11:58:48;33.90;;;9.00;;
7773;SDS011;3931;42.260;23.116;2023-11-21T12:01:16;22.47;;;9.53;;
7773;SDS011;3931;42.260;23.116;2023-11-21T12:03:44;19.30;;;9.67;;
7773;SDS011;3931;42.260;23.116;2023-11-21T12:06:33;27.33;;;8.77;;
7773;SDS011;3931;42.260;23.116;2023-11-21T12:09:00;23.43;;;8.50;;
7773;SDS011;3931;42.260;23.116;2023-11-21T12:11:30;29.80;;;13.80;;
7773;SDS011;3931;42.260;23.116;2023-11-21T12:13:56;25.43;;;10.93;;
7773;SDS011;3931;42.260;23.116;2023-11-21T12:16:24;27.67;;;11.70;;
7773;SDS011;3931;42.260;23.116;2023-11-21T12:18:53;23.83;;;10.40;;
7773;SDS011;3931;42.260;23.116;2023-11-21T12:21:19;21.33;;;8.93;;
7773;SDS011;3931;42.260;23.116;2023-11-21T12:23:46;43.23;;;15.13;;
7773;SDS011;3931;42.260;23.116;2023-11-21T12:26:12;64.73;;;25.60;;
7773;SDS011;3931;42.260;23.116;2023-11-21T12:28:38;22.60;;;10.07;;
7773;SDS011;3931;42.260;23.116;2023-11-21T12:31:05;23.70;;;10.03;;
7773;SDS011;3931;42.260;23.116;2023-11-21T12:33:32;26.10;;;10.70;;
7773;SDS011;3931;42.260;23.116;2023-11-21T12:35:59;40.17;;;13.10;;
7773;SDS011;3931;42.260;23.116;2023-11-21T12:38:25;27.40;;;9.73;;
7773;SDS011;3931;42.260;23.116;2023-11-21T12:40:59;25.07;;;13.30;;
7773;SDS011;3931;42.260;23.116;2023-11-21T12:43:25;37.27;;;13.00;;
7773;SDS011;3931;42.260;23.116;2023-11-21T12:46:04;32.20;;;11.73;;
7773;SDS011;3931;42.260;23.116;2023-11-21T12:48:31;38.23;;;14.40;;
7773;SDS011;3931;42.260;23.116;2023-11-21T12:50:57;24.87;;;11.23;;
7773;SDS011;3931;42.260;23.116;2023-11-21T12:53:25;34.73;;;14.37;;
7773;SDS011;3931;42.260;23.116;2023-11-21T12:55:51;48.23;;;20.30;;
7773;SDS011;3931;42.260;23.116;2023-11-21T12:58:23;31.43;;;14.47;;
7773;SDS011;3931;42.260;23.116;2023-11-21T13:00:50;31.33;;;13.13;;
7773;SDS011;3931;42.260;23.116;2023-11-21T13:03:19;34.90;;;13.40;;
7773;SDS011;3931;42.260;23.116;2023-11-21T13:05:50;32.27;;;15.23;;
7773;SDS011;3931;42.260;23.116;2023-11-21T13:08:19;26.67;;;11.00;;
7773;SDS011;3931;42.260;23.116;2023-11-21T13:10:48;30.53;;;14.83;;
7773;SDS011;3931;42.260;23.116;2023-11-21T13:13:15;44.83;;;20.93;;
7773;SDS011;3931;42.260;23.116;2023-11-21T13:15:47;29.57;;;10.60;;
7773;SDS011;3931;42.260;23.116;2023-11-21T13:18:14;33.53;;;13.03;;
7773;SDS011;3931;42.260;23.116;2023-11-21T13:20:41;32.10;;;13.30;;
7773;SDS011;3931;42.260;23.116;2023-11-21T13:23:09;23.83;;;12.13;;
7773;SDS011;3931;42.260;23.116;2023-11-21T13:25:37;33.17;;;13.33;;
7773;SDS011;3931;42.260;23.116;2023-11-21T13:28:06;30.40;;;13.10;;
7773;SDS011;3931;42.260;23.116;2023-11-21T13:30:33;32.30;;;14.87;;
7773;SDS011;3931;42.260;23.116;2023-11-21T13:32:59;40.43;;;15.00;;
7773;SDS011;3931;42.260;23.116;2023-11-21T13:35:27;34.97;;;15.33;;
7773;SDS011;3931;42.260;23.116;2023-11-21T13:38:03;35.10;;;15.03;;
7773;SDS011;3931;42.260;23.116;2023-11-21T13:40:31;34.47;;;15.90;;
7773;SDS011;3931;42.260;23.116;2023-11-21T13:43:05;40.70;;;14.90;;
7773;SDS011;3931;42.260;23.116;2023-11-21T13:45:34;33.23;;;13.77;;
7773;SDS011;3931;42.260;23.116;2023-11-21T13:48:01;32.00;;;11.83;;
7773;SDS011;3931;42.260;23.116;2023-11-21T13:50:30;32.17;;;11.87;;
7773;SDS011;3931;42.260;23.116;2023-11-21T13:52:59;28.63;;;12.67;;
7773;SDS011;3931;42.260;23.116;2023-11-21T13:55:29;33.40;;;12.53;;
7773;SDS011;3931;42.260;23.116;2023-11-21T13:57:55;40.63;;;12.47;;
7773;SDS011;3931;42.260;23.116;2023-11-21T14:00:21;24.97;;;13.27;;
7773;SDS011;3931;42.260;23.116;2023-11-21T14:03:05;32.40;;;15.20;;
7773;SDS011;3931;42.260;23.116;2023-11-21T14:05:36;33.93;;;17.57;;
7773;SDS011;3931;42.260;23.116;2023-11-21T14:08:02;35.53;;;16.10;;
7773;SDS011;3931;42.260;23.116;2023-11-21T14:10:30;41.60;;;16.00;;
7773;SDS011;3931;42.260;23.116;2023-11-21T14:13:05;42.87;;;18.30;;
7773;SDS011;3931;42.260;23.116;2023-11-21T14:15:32;38.23;;;18.33;;
7773;SDS011;3931;42.260;23.116;2023-11-21T14:18:02;36.07;;;17.90;;
7773;SDS011;3931;42.260;23.116;2023-11-21T14:20:32;39.90;;;18.00;;
7773;SDS011;3931;42.260;23.116;2023-11-21T14:23:01;37.13;;;17.60;;
7773;SDS011;3931;42.260;23.116;2023-11-21T14:25:27;34.63;;;16.43;;
7773;SDS011;3931;42.260;23.116;2023-11-21T14:27:53;128.80;;;48.97;;
7773;SDS011;3931;42.260;23.116;2023-11-21T14:30:19;95.77;;;42.20;;
7773;SDS011;3931;42.260;23.116;2023-11-21T14:32:48;42.53;;;20.13;;
7773;SDS011;3931;42.260;23.116;2023-11-21T14:35:14;41.13;;;22.00;;
7773;SDS011;3931;42.260;23.116;2023-11-21T14:37:41;53.83;;;27.13;;
7773;SDS011;3931;42.260;23.116;2023-11-21T14:40:07;49.30;;;21.87;;